sensor_id;sensor_type;location;lat;lon;timestamp;pressure;altitude;pressure_sealevel;temperature;humidity
3544;BME280;1786;52.870;9.578;2022-10-26T00:01:07;100700.22;;;24.40;46.19
3544;BME280;1786;52.870;9.578;2022-10-26T00:03:36;100694.63;;;24.27;46.82
3544;BME280;1786;52.870;9.578;2022-10-26T00:06:09;100699.28;;;24.33;46.56
3544;BME280;1786;52.870;9.578;2022-10-26T00:08:36;100694.25;;;24.30;46.55
3544;BME280;1786;52.870;9.578;2022-10-26T00:11:03;100697.66;;;24.24;46.16
3544;BME280;1786;52.870;9.578;2022-10-26T00:13:30;100692.75;;;24.27;46.29
3544;BME280;1786;52.870;9.578;2022-10-26T00:15:58;100700.75;;;24.21;46.13
3544;BME280;1786;52.870;9.578;2022-10-26T00:18:25;100695.06;;;24.15;46.31
3544;BME280;1786;52.870;9.578;2022-10-26T00:20:52;100691.78;;;24.05;46.35
3544;BME280;1786;52.870;9.578;2022-10-26T00:23:19;100694.84;;;24.02;46.06
3544;BME280;1786;52.870;9.578;2022-10-26T00:25:53;100689.44;;;24.02;46.03
3544;BME280;1786;52.870;9.578;2022-10-26T00:28:20;100692.84;;;23.96;46.27
3544;BME280;1786;52.870;9.578;2022-10-26T00:30:46;100690.00;;;23.97;45.94
3544;BME280;1786;52.870;9.578;2022-10-26T00:33:13;100694.94;;;23.94;46.00
3544;BME280;1786;52.870;9.578;2022-10-26T00:35:40;100697.44;;;23.95;46.25
3544;BME280;1786;52.870;9.578;2022-10-26T00:38:12;100699.75;;;23.98;45.57
3544;BME280;1786;52.870;9.578;2022-10-26T00:40:39;100694.69;;;23.81;46.20
3544;BME280;1786;52.870;9.578;2022-10-26T00:43:14;100700.81;;;23.74;45.93
3544;BME280;1786;52.870;9.578;2022-10-26T00:45:42;100696.94;;;23.69;46.07
3544;BME280;1786;52.870;9.578;2022-10-26T00:48:35;100700.41;;;23.54;46.62
3544;BME280;1786;52.870;9.578;2022-10-26T00:51:17;100700.88;;;23.58;46.58
3544;BME280;1786;52.870;9.578;2022-10-26T00:53:45;100702.88;;;23.64;46.65
3544;BME280;1786;52.870;9.578;2022-10-26T00:56:14;100697.13;;;23.67;46.24
3544;BME280;1786;52.870;9.578;2022-10-26T00:58:42;100695.16;;;23.61;46.08
3544;BME280;1786;52.870;9.578;2022-10-26T01:01:09;100698.16;;;23.66;46.30
3544;BME280;1786;52.870;9.578;2022-10-26T01:03:36;100702.38;;;23.61;46.14
3544;BME280;1786;52.870;9.578;2022-10-26T01:06:04;100702.31;;;23.77;45.72
3544;BME280;1786;52.870;9.578;2022-10-26T01:08:33;100706.03;;;23.68;45.97
3544;BME280;1786;52.870;9.578;2022-10-26T01:11:00;100695.84;;;23.55;46.15
3544;BME280;1786;52.870;9.578;2022-10-26T01:13:29;100699.81;;;23.44;46.17
3544;BME280;1786;52.870;9.578;2022-10-26T01:16:10;100706.78;;;23.39;46.07
3544;BME280;1786;52.870;9.578;2022-10-26T01:18:53;100701.00;;;23.42;46.11
3544;BME280;1786;52.870;9.578;2022-10-26T01:24:15;100698.69;;;23.39;46.18
3544;BME280;1786;52.870;9.578;2022-10-26T01:27:12;100695.91;;;23.24;46.16
3544;BME280;1786;52.870;9.578;2022-10-26T01:35:48;100688.53;;;23.41;45.52
3544;BME280;1786;52.870;9.578;2022-10-26T01:41:03;100678.53;;;23.18;46.02
3544;BME280;1786;52.870;9.578;2022-10-26T01:43:34;100669.81;;;23.16;45.93
3544;BME280;1786;52.870;9.578;2022-10-26T01:46:04;100679.91;;;23.68;45.14
3544;BME280;1786;52.870;9.578;2022-10-26T01:48:33;100678.41;;;23.89;44.56
3544;BME280;1786;52.870;9.578;2022-10-26T01:51:02;100682.94;;;24.11;44.21
3544;BME280;1786;52.870;9.578;2022-10-26T01:53:30;100678.19;;;24.13;44.05
3544;BME280;1786;52.870;9.578;2022-10-26T01:55:57;100680.72;;;24.15;43.70
3544;BME280;1786;52.870;9.578;2022-10-26T01:58:53;100675.88;;;23.72;44.50
3544;BME280;1786;52.870;9.578;2022-10-26T02:01:29;100681.56;;;23.23;45.07
3544;BME280;1786;52.870;9.578;2022-10-26T02:04:23;100677.63;;;23.03;45.65
3544;BME280;1786;52.870;9.578;2022-10-26T02:09:42;100679.59;;;23.17;45.90
3544;BME280;1786;52.870;9.578;2022-10-26T02:12:25;100676.53;;;23.20;45.82
3544;BME280;1786;52.870;9.578;2022-10-26T02:17:36;100661.84;;;23.23;46.55
3544;BME280;1786;52.870;9.578;2022-10-26T02:20:12;100667.75;;;23.26;47.00
3544;BME280;1786;52.870;9.578;2022-10-26T02:22:46;100660.94;;;23.30;47.18
3544;BME280;1786;52.870;9.578;2022-10-26T02:25:22;100664.25;;;23.41;46.92
3544;BME280;1786;52.870;9.578;2022-10-26T02:27:53;100659.22;;;23.38;46.60
3544;BME280;1786;52.870;9.578;2022-10-26T02:30:21;100658.88;;;23.41;46.55
3544;BME280;1786;52.870;9.578;2022-10-26T02:32:51;100656.53;;;23.38;46.59
3544;BME280;1786;52.870;9.578;2022-10-26T02:35:22;100655.53;;;23.39;46.21
3544;BME280;1786;52.870;9.578;2022-10-26T02:37:52;100648.50;;;23.29;46.39
3544;BME280;1786;52.870;9.578;2022-10-26T02:40:24;100650.53;;;23.27;46.46
3544;BME280;1786;52.870;9.578;2022-10-26T02:42:53;100642.97;;;23.23;45.90
3544;BME280;1786;52.870;9.578;2022-10-26T02:45:23;100642.50;;;23.19;45.84
3544;BME280;1786;52.870;9.578;2022-10-26T02:47:52;100639.28;;;23.24;45.65
3544;BME280;1786;52.870;9.578;2022-10-26T02:50:23;100645.00;;;23.21;45.82
3544;BME280;1786;52.870;9.578;2022-10-26T02:56:07;100629.09;;;23.03;45.58
3544;BME280;1786;52.870;9.578;2022-10-26T02:58:40;100629.00;;;22.88;45.76
3544;BME280;1786;52.870;9.578;2022-10-26T03:01:09;100633.69;;;22.94;45.93
3544;BME280;1786;52.870;9.578;2022-10-26T03:03:36;100628.81;;;22.98;45.56
3544;BME280;1786;52.870;9.578;2022-10-26T03:06:02;100623.25;;;22.99;45.51
3544;BME280;1786;52.870;9.578;2022-10-26T03:08:29;100621.47;;;22.83;45.78
3544;BME280;1786;52.870;9.578;2022-10-26T03:10:56;100618.47;;;22.78;46.45
3544;BME280;1786;52.870;9.578;2022-10-26T03:13:23;100614.69;;;22.87;46.74
3544;BME280;1786;52.870;9.578;2022-10-26T03:15:49;100621.78;;;22.80;46.38
3544;BME280;1786;52.870;9.578;2022-10-26T03:18:16;100622.88;;;22.71;46.76
3544;BME280;1786;52.870;9.578;2022-10-26T03:20:43;100616.34;;;22.65;46.97
3544;BME280;1786;52.870;9.578;2022-10-26T03:23:11;100616.06;;;22.83;46.87
3544;BME280;1786;52.870;9.578;2022-10-26T03:25:37;100618.03;;;22.98;46.41
3544;BME280;1786;52.870;9.578;2022-10-26T03:28:04;100611.09;;;22.95;46.26
3544;BME280;1786;52.870;9.578;2022-10-26T03:30:31;100621.31;;;23.16;46.12
3544;BME280;1786;52.870;9.578;2022-10-26T03:32:58;100620.72;;;22.98;46.39
3544;BME280;1786;52.870;9.578;2022-10-26T03:35:25;100615.47;;;23.04;46.82
3544;BME280;1786;52.870;9.578;2022-10-26T03:37:51;100616.03;;;22.92;47.58
3544;BME280;1786;52.870;9.578;2022-10-26T03:40:18;100609.25;;;23.04;46.90
3544;BME280;1786;52.870;9.578;2022-10-26T03:42:45;100613.22;;;23.16;46.96
3544;BME280;1786;52.870;9.578;2022-10-26T03:45:12;100608.81;;;23.15;46.80
3544;BME280;1786;52.870;9.578;2022-10-26T03:47:46;100610.69;;;22.75;47.86
3544;BME280;1786;52.870;9.578;2022-10-26T03:50:15;100609.72;;;22.76;47.62
3544;BME280;1786;52.870;9.578;2022-10-26T03:52:42;100600.81;;;22.67;48.28
3544;BME280;1786;52.870;9.578;2022-10-26T03:55:09;100595.63;;;22.58;48.45
3544;BME280;1786;52.870;9.578;2022-10-26T03:57:40;100611.38;;;22.77;48.07
3544;BME280;1786;52.870;9.578;2022-10-26T04:00:09;100602.72;;;22.98;47.66
3544;BME280;1786;52.870;9.578;2022-10-26T04:02:41;100611.88;;;22.81;48.51
3544;BME280;1786;52.870;9.578;2022-10-26T04:05:08;100614.47;;;22.66;48.62
3544;BME280;1786;52.870;9.578;2022-10-26T04:07:35;100620.53;;;22.68;48.72
3544;BME280;1786;52.870;9.578;2022-10-26T04:10:03;100607.78;;;22.85;48.34
3544;BME280;1786;52.870;9.578;2022-10-26T04:12:30;100605.28;;;22.83;48.33
3544;BME280;1786;52.870;9.578;2022-10-26T04:14:56;100606.31;;;23.14;48.33
3544;BME280;1786;52.870;9.578;2022-10-26T04:17:24;100603.03;;;23.03;48.15
3544;BME280;1786;52.870;9.578;2022-10-26T04:19:50;100603.84;;;23.04;47.86
3544;BME280;1786;52.870;9.578;2022-10-26T04:22:17;100599.97;;;23.06;47.57
3544;BME280;1786;52.870;9.578;2022-10-26T04:24:43;100603.50;;;23.07;48.08
3544;BME280;1786;52.870;9.578;2022-10-26T04:27:10;100605.72;;;23.03;47.63
3544;BME280;1786;52.870;9.578;2022-10-26T04:29:37;100601.78;;;23.14;47.90
3544;BME280;1786;52.870;9.578;2022-10-26T04:32:03;100600.38;;;22.87;48.57
3544;BME280;1786;52.870;9.578;2022-10-26T04:34:30;100595.13;;;22.62;48.45
3544;BME280;1786;52.870;9.578;2022-10-26T04:36:56;100599.75;;;22.37;50.00
3544;BME280;1786;52.870;9.578;2022-10-26T04:39:23;100592.22;;;22.33;49.86
3544;BME280;1786;52.870;9.578;2022-10-26T04:41:52;100589.66;;;22.39;50.07
3544;BME280;1786;52.870;9.578;2022-10-26T04:44:19;100601.56;;;21.73;51.60
3544;BME280;1786;52.870;9.578;2022-10-26T04:46:46;100592.47;;;21.82;51.92
3544;BME280;1786;52.870;9.578;2022-10-26T04:49:12;100598.47;;;22.09;51.26
3544;BME280;1786;52.870;9.578;2022-10-26T04:51:40;100595.41;;;22.36;50.63
3544;BME280;1786;52.870;9.578;2022-10-26T04:54:06;100595.78;;;22.09;51.27
3544;BME280;1786;52.870;9.578;2022-10-26T04:56:33;100591.44;;;21.91;51.85
3544;BME280;1786;52.870;9.578;2022-10-26T04:59:00;100593.47;;;21.81;51.74
3544;BME280;1786;52.870;9.578;2022-10-26T05:01:26;100600.47;;;22.31;50.83
3544;BME280;1786;52.870;9.578;2022-10-26T05:03:53;100599.78;;;22.29;50.69
3544;BME280;1786;52.870;9.578;2022-10-26T05:06:20;100592.38;;;22.31;50.87
3544;BME280;1786;52.870;9.578;2022-10-26T05:08:47;100594.38;;;22.45;50.54
3544;BME280;1786;52.870;9.578;2022-10-26T05:11:13;100600.44;;;22.39;50.62
3544;BME280;1786;52.870;9.578;2022-10-26T05:13:41;100603.69;;;22.66;49.89
3544;BME280;1786;52.870;9.578;2022-10-26T05:16:07;100602.00;;;22.65;50.10
3544;BME280;1786;52.870;9.578;2022-10-26T05:18:34;100598.22;;;22.82;49.01
3544;BME280;1786;52.870;9.578;2022-10-26T05:21:01;100601.69;;;22.99;49.37
3544;BME280;1786;52.870;9.578;2022-10-26T05:23:27;100602.47;;;23.08;48.62
3544;BME280;1786;52.870;9.578;2022-10-26T05:25:54;100599.44;;;23.11;48.68
3544;BME280;1786;52.870;9.578;2022-10-26T05:28:22;100604.53;;;23.06;48.80
3544;BME280;1786;52.870;9.578;2022-10-26T05:30:48;100594.81;;;23.20;48.77
3544;BME280;1786;52.870;9.578;2022-10-26T05:33:15;100596.69;;;23.19;47.93
3544;BME280;1786;52.870;9.578;2022-10-26T05:35:41;100591.09;;;23.21;48.40
3544;BME280;1786;52.870;9.578;2022-10-26T05:38:16;100602.00;;;23.27;47.96
3544;BME280;1786;52.870;9.578;2022-10-26T05:40:49;100602.50;;;23.31;47.76
3544;BME280;1786;52.870;9.578;2022-10-26T05:43:17;100594.94;;;23.26;47.52
3544;BME280;1786;52.870;9.578;2022-10-26T05:45:44;100601.31;;;23.33;47.59
3544;BME280;1786;52.870;9.578;2022-10-26T05:48:11;100603.69;;;23.28;47.68
3544;BME280;1786;52.870;9.578;2022-10-26T05:50:38;100610.03;;;23.36;47.49
3544;BME280;1786;52.870;9.578;2022-10-26T05:53:04;100605.97;;;23.40;47.62
3544;BME280;1786;52.870;9.578;2022-10-26T05:55:32;100613.00;;;23.41;47.14
3544;BME280;1786;52.870;9.578;2022-10-26T05:57:59;100608.00;;;23.38;47.62
3544;BME280;1786;52.870;9.578;2022-10-26T06:00:27;100617.56;;;23.40;47.37
3544;BME280;1786;52.870;9.578;2022-10-26T06:05:50;100619.56;;;23.46;47.49
3544;BME280;1786;52.870;9.578;2022-10-26T06:08:19;100608.22;;;23.05;48.41
3544;BME280;1786;52.870;9.578;2022-10-26T06:10:46;100608.41;;;23.03;48.15
3544;BME280;1786;52.870;9.578;2022-10-26T06:13:13;100611.38;;;22.77;48.83
3544;BME280;1786;52.870;9.578;2022-10-26T06:15:50;100609.81;;;22.52;49.79
3544;BME280;1786;52.870;9.578;2022-10-26T06:24:01;100615.66;;;22.55;49.96
3544;BME280;1786;52.870;9.578;2022-10-26T06:29:46;100613.22;;;22.37;50.46
3544;BME280;1786;52.870;9.578;2022-10-26T06:32:16;100623.97;;;22.45;50.63
3544;BME280;1786;52.870;9.578;2022-10-26T06:34:45;100621.56;;;22.59;50.46
3544;BME280;1786;52.870;9.578;2022-10-26T06:37:13;100624.78;;;22.85;49.87
3544;BME280;1786;52.870;9.578;2022-10-26T06:39:44;100617.03;;;22.90;50.15
3544;BME280;1786;52.870;9.578;2022-10-26T06:42:17;100626.25;;;23.27;50.05
3544;BME280;1786;52.870;9.578;2022-10-26T06:44:43;100633.03;;;23.69;50.19
3544;BME280;1786;52.870;9.578;2022-10-26T06:47:20;100631.38;;;24.21;49.61
3544;BME280;1786;52.870;9.578;2022-10-26T06:50:24;100638.56;;;25.24;51.87
3544;BME280;1786;52.870;9.578;2022-10-26T06:55:28;100646.59;;;27.22;48.92
3544;BME280;1786;52.870;9.578;2022-10-26T06:57:56;100642.88;;;27.49;46.84
3544;BME280;1786;52.870;9.578;2022-10-26T07:00:23;100655.44;;;27.97;44.58
3544;BME280;1786;52.870;9.578;2022-10-26T07:02:50;100657.47;;;28.35;44.00
3544;BME280;1786;52.870;9.578;2022-10-26T07:05:17;100658.19;;;28.88;43.93
3544;BME280;1786;52.870;9.578;2022-10-26T07:07:46;100656.41;;;29.46;44.21
3544;BME280;1786;52.870;9.578;2022-10-26T07:10:14;100659.13;;;30.28;41.75
3544;BME280;1786;52.870;9.578;2022-10-26T07:12:40;100666.69;;;31.18;41.00
3544;BME280;1786;52.870;9.578;2022-10-26T07:15:07;100671.31;;;32.01;38.49
3544;BME280;1786;52.870;9.578;2022-10-26T07:17:46;100673.84;;;32.90;37.97
3544;BME280;1786;52.870;9.578;2022-10-26T07:20:16;100675.56;;;33.82;36.67
3544;BME280;1786;52.870;9.578;2022-10-26T07:22:43;100676.06;;;33.79;35.67
3544;BME280;1786;52.870;9.578;2022-10-26T07:25:10;100685.34;;;34.29;36.11
3544;BME280;1786;52.870;9.578;2022-10-26T07:27:37;100690.00;;;34.89;35.64
3544;BME280;1786;52.870;9.578;2022-10-26T07:30:05;100693.59;;;35.39;34.86
3544;BME280;1786;52.870;9.578;2022-10-26T07:32:31;100687.03;;;35.67;35.04
3544;BME280;1786;52.870;9.578;2022-10-26T07:34:58;100688.66;;;36.38;33.24
3544;BME280;1786;52.870;9.578;2022-10-26T07:37:25;100695.63;;;37.14;33.36
3544;BME280;1786;52.870;9.578;2022-10-26T07:39:51;100686.72;;;36.96;32.71
3544;BME280;1786;52.870;9.578;2022-10-26T07:42:18;100685.75;;;37.28;32.58
3544;BME280;1786;52.870;9.578;2022-10-26T07:44:45;100692.34;;;37.32;33.27
3544;BME280;1786;52.870;9.578;2022-10-26T07:47:12;100691.88;;;37.71;32.63
3544;BME280;1786;52.870;9.578;2022-10-26T07:49:39;100695.13;;;38.29;32.40
3544;BME280;1786;52.870;9.578;2022-10-26T07:52:06;100679.34;;;38.50;31.92
3544;BME280;1786;52.870;9.578;2022-10-26T07:54:33;100691.44;;;38.70;31.56
3544;BME280;1786;52.870;9.578;2022-10-26T07:56:59;100690.69;;;38.54;31.47
3544;BME280;1786;52.870;9.578;2022-10-26T07:59:26;100685.47;;;38.27;31.91
3544;BME280;1786;52.870;9.578;2022-10-26T08:01:53;100685.75;;;38.36;32.24
3544;BME280;1786;52.870;9.578;2022-10-26T08:04:20;100683.09;;;38.80;31.27
3544;BME280;1786;52.870;9.578;2022-10-26T08:06:46;100685.63;;;38.77;32.23
3544;BME280;1786;52.870;9.578;2022-10-26T08:09:14;100689.81;;;39.18;31.03
3544;BME280;1786;52.870;9.578;2022-10-26T08:11:40;100685.53;;;39.47;30.84
3544;BME280;1786;52.870;9.578;2022-10-26T08:14:09;100685.94;;;39.64;31.02
3544;BME280;1786;52.870;9.578;2022-10-26T08:16:36;100689.06;;;39.52;31.22
3544;BME280;1786;52.870;9.578;2022-10-26T08:19:06;100691.84;;;39.52;31.81
3544;BME280;1786;52.870;9.578;2022-10-26T08:21:33;100684.94;;;39.50;30.66
3544;BME280;1786;52.870;9.578;2022-10-26T08:24:06;100689.00;;;38.43;31.60
3544;BME280;1786;52.870;9.578;2022-10-26T08:26:33;100684.31;;;38.59;32.65
3544;BME280;1786;52.870;9.578;2022-10-26T08:29:00;100683.84;;;37.90;32.80
3544;BME280;1786;52.870;9.578;2022-10-26T08:31:27;100688.78;;;37.37;33.22
3544;BME280;1786;52.870;9.578;2022-10-26T08:33:53;100692.44;;;37.63;33.79
3544;BME280;1786;52.870;9.578;2022-10-26T08:36:23;100681.50;;;36.90;33.43
3544;BME280;1786;52.870;9.578;2022-10-26T08:38:50;100685.56;;;36.72;33.71
3544;BME280;1786;52.870;9.578;2022-10-26T08:44:02;100683.69;;;36.35;34.77
3544;BME280;1786;52.870;9.578;2022-10-26T08:46:37;100673.13;;;35.03;35.51
3544;BME280;1786;52.870;9.578;2022-10-26T08:49:18;100658.03;;;33.67;36.99
3544;BME280;1786;52.870;9.578;2022-10-26T08:51:46;100662.25;;;32.48;38.46
3544;BME280;1786;52.870;9.578;2022-10-26T08:54:24;100653.56;;;31.92;39.15
3544;BME280;1786;52.870;9.578;2022-10-26T08:56:56;100646.59;;;31.42;40.35
3544;BME280;1786;52.870;9.578;2022-10-26T08:59:30;100648.19;;;30.09;42.16
3544;BME280;1786;52.870;9.578;2022-10-26T09:02:01;100639.13;;;29.90;42.39
3544;BME280;1786;52.870;9.578;2022-10-26T09:04:30;100638.28;;;28.95;43.64
3544;BME280;1786;52.870;9.578;2022-10-26T09:07:36;100636.59;;;28.35;44.52
3544;BME280;1786;52.870;9.578;2022-10-26T09:10:34;100628.41;;;28.42;45.16
3544;BME280;1786;52.870;9.578;2022-10-26T09:13:14;100628.28;;;28.10;45.34
3544;BME280;1786;52.870;9.578;2022-10-26T09:26:51;100648.41;;;30.88;41.10
3544;BME280;1786;52.870;9.578;2022-10-26T09:29:24;100647.81;;;31.16;41.72
3544;BME280;1786;52.870;9.578;2022-10-26T09:31:54;100652.75;;;32.62;39.47
3544;BME280;1786;52.870;9.578;2022-10-26T09:34:28;100665.59;;;32.50;39.93
3544;BME280;1786;52.870;9.578;2022-10-26T09:36:56;100662.88;;;32.90;39.25
3544;BME280;1786;52.870;9.578;2022-10-26T09:39:29;100662.75;;;33.09;38.84
3544;BME280;1786;52.870;9.578;2022-10-26T09:42:21;100665.91;;;33.63;38.53
3544;BME280;1786;52.870;9.578;2022-10-26T09:44:54;100657.66;;;33.46;38.25
3544;BME280;1786;52.870;9.578;2022-10-26T09:47:38;100661.53;;;33.33;38.64
3544;BME280;1786;52.870;9.578;2022-10-26T09:52:35;100664.78;;;32.26;39.80
3544;BME280;1786;52.870;9.578;2022-10-26T09:55:02;100658.44;;;31.78;40.41
3544;BME280;1786;52.870;9.578;2022-10-26T09:57:28;100659.94;;;31.20;41.54
3544;BME280;1786;52.870;9.578;2022-10-26T09:59:56;100659.06;;;31.38;41.17
3544;BME280;1786;52.870;9.578;2022-10-26T10:05:02;100668.88;;;33.16;39.35
3544;BME280;1786;52.870;9.578;2022-10-26T10:11:06;100666.53;;;32.96;39.47
3544;BME280;1786;52.870;9.578;2022-10-26T10:13:36;100671.78;;;32.97;39.78
3544;BME280;1786;52.870;9.578;2022-10-26T10:16:22;100663.47;;;33.04;39.65
3544;BME280;1786;52.870;9.578;2022-10-26T10:18:58;100672.41;;;32.88;39.49
3544;BME280;1786;52.870;9.578;2022-10-26T10:22:07;100674.31;;;33.28;39.17
3544;BME280;1786;52.870;9.578;2022-10-26T10:24:36;100665.00;;;33.29;39.28
3544;BME280;1786;52.870;9.578;2022-10-26T10:32:16;100659.19;;;32.21;40.56
3544;BME280;1786;52.870;9.578;2022-10-26T10:34:43;100650.47;;;31.77;41.32
3544;BME280;1786;52.870;9.578;2022-10-26T10:37:26;100656.56;;;30.51;42.43
3544;BME280;1786;52.870;9.578;2022-10-26T10:40:00;100647.31;;;30.09;43.50
3544;BME280;1786;52.870;9.578;2022-10-26T10:42:31;100648.06;;;29.97;44.25
3544;BME280;1786;52.870;9.578;2022-10-26T10:44:59;100645.72;;;29.51;44.51
3544;BME280;1786;52.870;9.578;2022-10-26T10:47:32;100656.09;;;29.61;44.80
3544;BME280;1786;52.870;9.578;2022-10-26T10:50:19;100656.88;;;28.98;45.90
3544;BME280;1786;52.870;9.578;2022-10-26T10:52:46;100649.16;;;28.16;46.74
3544;BME280;1786;52.870;9.578;2022-10-26T11:00:26;100663.50;;;29.22;45.59
3544;BME280;1786;52.870;9.578;2022-10-26T11:05:52;100665.09;;;28.84;45.94
3544;BME280;1786;52.870;9.578;2022-10-26T11:11:16;100672.94;;;29.51;45.38
3544;BME280;1786;52.870;9.578;2022-10-26T11:13:57;100674.88;;;29.75;45.59
3544;BME280;1786;52.870;9.578;2022-10-26T11:16:34;100682.50;;;30.17;43.89
3544;BME280;1786;52.870;9.578;2022-10-26T11:19:32;100681.59;;;29.98;44.99
3544;BME280;1786;52.870;9.578;2022-10-26T11:22:01;100673.94;;;29.88;44.93
3544;BME280;1786;52.870;9.578;2022-10-26T11:30:33;100674.47;;;30.47;44.50
3544;BME280;1786;52.870;9.578;2022-10-26T11:33:18;100675.81;;;30.38;44.29
3544;BME280;1786;52.870;9.578;2022-10-26T11:36:02;100676.97;;;30.24;44.76
3544;BME280;1786;52.870;9.578;2022-10-26T11:38:45;100669.84;;;29.79;45.47
3544;BME280;1786;52.870;9.578;2022-10-26T11:41:31;100670.38;;;29.88;45.57
3544;BME280;1786;52.870;9.578;2022-10-26T11:44:08;100674.09;;;29.68;46.00
3544;BME280;1786;52.870;9.578;2022-10-26T11:46:47;100672.56;;;29.02;46.69
3544;BME280;1786;52.870;9.578;2022-10-26T11:49:35;100673.28;;;29.61;45.79
3544;BME280;1786;52.870;9.578;2022-10-26T11:52:18;100682.59;;;30.04;45.65
3544;BME280;1786;52.870;9.578;2022-10-26T11:54:53;100679.69;;;29.73;45.17
3544;BME280;1786;52.870;9.578;2022-10-26T11:57:22;100683.16;;;29.87;45.44
3544;BME280;1786;52.870;9.578;2022-10-26T11:59:53;100697.56;;;29.63;45.63
3544;BME280;1786;52.870;9.578;2022-10-26T12:02:23;100689.84;;;29.60;45.75
3544;BME280;1786;52.870;9.578;2022-10-26T12:07:45;100693.16;;;30.44;45.56
3544;BME280;1786;52.870;9.578;2022-10-26T12:10:23;100691.78;;;30.09;45.09
3544;BME280;1786;52.870;9.578;2022-10-26T12:12:58;100690.28;;;30.13;45.51
3544;BME280;1786;52.870;9.578;2022-10-26T12:15:34;100689.38;;;30.45;45.32
3544;BME280;1786;52.870;9.578;2022-10-26T12:18:31;100693.34;;;29.98;46.29
3544;BME280;1786;52.870;9.578;2022-10-26T12:21:24;100688.44;;;30.07;45.65
3544;BME280;1786;52.870;9.578;2022-10-26T12:23:57;100690.81;;;30.47;45.45
3544;BME280;1786;52.870;9.578;2022-10-26T12:33:58;100706.22;;;29.21;47.16
3544;BME280;1786;52.870;9.578;2022-10-26T12:39:29;100692.81;;;29.20;47.94
3544;BME280;1786;52.870;9.578;2022-10-26T12:42:25;100695.69;;;28.73;48.20
3544;BME280;1786;52.870;9.578;2022-10-26T12:49:59;100703.56;;;30.03;46.25
3544;BME280;1786;52.870;9.578;2022-10-26T12:52:30;100694.97;;;29.81;46.98
3544;BME280;1786;52.870;9.578;2022-10-26T12:57:39;100712.66;;;30.22;46.44
3544;BME280;1786;52.870;9.578;2022-10-26T13:00:14;100710.38;;;30.62;46.25
3544;BME280;1786;52.870;9.578;2022-10-26T13:03:07;100714.94;;;31.05;45.42
3544;BME280;1786;52.870;9.578;2022-10-26T13:08:41;100716.56;;;30.95;44.75
3544;BME280;1786;52.870;9.578;2022-10-26T13:13:40;100704.03;;;29.68;46.88
3544;BME280;1786;52.870;9.578;2022-10-26T13:16:10;100693.31;;;29.73;46.81
3544;BME280;1786;52.870;9.578;2022-10-26T13:18:43;100692.09;;;30.63;45.43
3544;BME280;1786;52.870;9.578;2022-10-26T13:21:13;100695.59;;;30.70;45.85
3544;BME280;1786;52.870;9.578;2022-10-26T13:23:43;100696.22;;;30.29;46.04
3544;BME280;1786;52.870;9.578;2022-10-26T13:26:12;100699.88;;;30.41;46.26
3544;BME280;1786;52.870;9.578;2022-10-26T13:33:59;100691.56;;;30.36;46.05
3544;BME280;1786;52.870;9.578;2022-10-26T13:36:38;100698.38;;;30.45;46.45
3544;BME280;1786;52.870;9.578;2022-10-26T13:39:15;100694.69;;;30.14;47.05
3544;BME280;1786;52.870;9.578;2022-10-26T13:41:44;100692.31;;;30.25;46.62
3544;BME280;1786;52.870;9.578;2022-10-26T13:44:24;100689.28;;;30.08;46.99
3544;BME280;1786;52.870;9.578;2022-10-26T13:47:00;100686.41;;;30.21;46.06
3544;BME280;1786;52.870;9.578;2022-10-26T13:49:33;100678.09;;;29.91;46.75
3544;BME280;1786;52.870;9.578;2022-10-26T13:52:02;100680.84;;;29.59;46.85
3544;BME280;1786;52.870;9.578;2022-10-26T13:54:38;100689.28;;;29.51;46.85
3544;BME280;1786;52.870;9.578;2022-10-26T13:57:27;100685.44;;;29.90;46.51
3544;BME280;1786;52.870;9.578;2022-10-26T13:59:56;100691.09;;;30.39;45.77
3544;BME280;1786;52.870;9.578;2022-10-26T14:02:40;100701.00;;;30.95;44.78
3544;BME280;1786;52.870;9.578;2022-10-26T14:05:11;100695.75;;;30.94;45.17
3544;BME280;1786;52.870;9.578;2022-10-26T14:07:51;100702.09;;;31.55;44.93
3544;BME280;1786;52.870;9.578;2022-10-26T14:12:58;100706.19;;;30.78;44.97
3544;BME280;1786;52.870;9.578;2022-10-26T14:15:28;100704.31;;;31.16;44.96
3544;BME280;1786;52.870;9.578;2022-10-26T14:17:57;100714.06;;;31.23;45.42
3544;BME280;1786;52.870;9.578;2022-10-26T14:20:27;100723.13;;;32.08;43.52
3544;BME280;1786;52.870;9.578;2022-10-26T14:22:54;100715.19;;;32.30;43.29
3544;BME280;1786;52.870;9.578;2022-10-26T14:25:26;100712.78;;;31.56;44.15
3544;BME280;1786;52.870;9.578;2022-10-26T14:28:25;100730.63;;;31.59;44.04
3544;BME280;1786;52.870;9.578;2022-10-26T14:30:52;100732.75;;;31.08;44.62
3544;BME280;1786;52.870;9.578;2022-10-26T14:33:25;100742.91;;;31.68;44.09
3544;BME280;1786;52.870;9.578;2022-10-26T14:35:53;100742.78;;;31.75;44.00
3544;BME280;1786;52.870;9.578;2022-10-26T14:38:27;100741.16;;;31.07;44.59
3544;BME280;1786;52.870;9.578;2022-10-26T14:40:57;100740.56;;;30.86;45.32
3544;BME280;1786;52.870;9.578;2022-10-26T14:43:24;100737.91;;;30.36;46.19
3544;BME280;1786;52.870;9.578;2022-10-26T14:45:53;100740.13;;;30.64;45.75
3544;BME280;1786;52.870;9.578;2022-10-26T14:48:33;100739.56;;;30.80;45.17
3544;BME280;1786;52.870;9.578;2022-10-26T14:51:15;100741.69;;;30.97;45.19
3544;BME280;1786;52.870;9.578;2022-10-26T14:53:53;100748.03;;;30.72;45.51
3544;BME280;1786;52.870;9.578;2022-10-26T14:56:22;100745.78;;;31.06;45.08
3544;BME280;1786;52.870;9.578;2022-10-26T14:58:50;100748.72;;;31.41;44.74
3544;BME280;1786;52.870;9.578;2022-10-26T15:03:51;100759.28;;;32.10;43.77
3544;BME280;1786;52.870;9.578;2022-10-26T15:08:56;100766.06;;;32.19;44.04
3544;BME280;1786;52.870;9.578;2022-10-26T15:11:27;100769.88;;;31.76;44.33
3544;BME280;1786;52.870;9.578;2022-10-26T15:13:55;100767.38;;;32.40;43.74
3544;BME280;1786;52.870;9.578;2022-10-26T15:16:25;100779.03;;;32.36;43.78
3544;BME280;1786;52.870;9.578;2022-10-26T15:19:08;100779.16;;;32.29;43.85
3544;BME280;1786;52.870;9.578;2022-10-26T15:21:44;100780.19;;;32.04;43.66
3544;BME280;1786;52.870;9.578;2022-10-26T15:24:34;100779.84;;;32.01;43.81
3544;BME280;1786;52.870;9.578;2022-10-26T15:27:12;100777.25;;;31.87;44.05
3544;BME280;1786;52.870;9.578;2022-10-26T15:32:30;100775.34;;;31.76;44.32
3544;BME280;1786;52.870;9.578;2022-10-26T15:37:37;100776.19;;;31.46;45.14